createdAt,value
2022-12-12T00:01:39.844Z,16.30
2022-12-12T00:04:09.384Z,15.52
2022-12-12T00:06:37.474Z,12.70
2022-12-12T00:09:04.989Z,12.63
2022-12-12T00:11:32.737Z,10.55
2022-12-12T00:14:00.068Z,11.18
2022-12-12T00:16:28.701Z,11.70
2022-12-12T00:18:56.046Z,13.17
2022-12-12T00:21:26.904Z,14.30
2022-12-12T00:23:55.023Z,16.05
2022-12-12T00:26:30.265Z,15.48
2022-12-12T00:28:58.689Z,15.07
2022-12-12T00:31:26.792Z,14.73
2022-12-12T00:33:54.953Z,12.63
2022-12-12T00:36:25.004Z,13.20
2022-12-12T00:38:53.575Z,12.47
2022-12-12T00:41:21.768Z,11.60
2022-12-12T00:43:48.984Z,9.50
2022-12-12T00:46:19.975Z,9.03
2022-12-12T00:48:47.378Z,10.33
2022-12-12T00:51:18.563Z,9.93
2022-12-12T00:53:46.058Z,9.93
2022-12-12T00:56:22.011Z,10.37
2022-12-12T00:58:50.311Z,12.83
2022-12-12T01:01:24.965Z,13.23
2022-12-12T01:03:53.829Z,13.17
2022-12-12T01:06:22.259Z,15.23
2022-12-12T01:08:50.571Z,16.13
2022-12-12T01:11:19.119Z,15.10
2022-12-12T01:13:49.997Z,15.13
2022-12-12T01:16:17.610Z,15.83
2022-12-12T01:18:44.999Z,16.23
2022-12-12T01:21:14.998Z,16.20
2022-12-12T01:23:42.561Z,16.13
2022-12-12T01:26:16.520Z,16.33
2022-12-12T01:28:45.111Z,15.90
2022-12-12T01:31:14.366Z,15.70
2022-12-12T01:33:46.028Z,15.57
2022-12-12T01:36:19.392Z,15.90
2022-12-12T01:38:48.636Z,15.53
2022-12-12T01:41:16.758Z,16.10
2022-12-12T01:43:45.277Z,15.63
2022-12-12T01:46:44.219Z,15.70
2022-12-12T01:49:27.517Z,15.27
2022-12-12T01:52:00.755Z,14.47
2022-12-12T01:54:31.438Z,14.70
2022-12-12T01:57:02.444Z,13.27
2022-12-12T01:59:29.993Z,13.23
2022-12-12T02:01:57.462Z,7.23
2022-12-12T02:04:26.072Z,6.23
2022-12-12T02:06:54.409Z,5.10
2022-12-12T02:09:25.030Z,3.30
2022-12-12T02:11:55.104Z,3.53
2022-12-12T02:14:42.488Z,4.50
2022-12-12T02:17:10.073Z,4.10
2022-12-12T02:20:08.450Z,4.30
2022-12-12T02:23:00.354Z,3.10
2022-12-12T02:25:36.490Z,2.70
2022-12-12T02:28:28.492Z,2.58
2022-12-12T02:31:24.238Z,2.70
2022-12-12T02:34:03.626Z,2.10
2022-12-12T02:36:58.541Z,2.50
2022-12-12T02:39:36.034Z,2.40
2022-12-12T02:42:09.087Z,2.27
2022-12-12T02:44:59.962Z,3.00
2022-12-12T02:47:31.299Z,4.50
2022-12-12T02:50:09.078Z,5.70
2022-12-12T02:52:36.738Z,4.20
2022-12-12T02:55:05.471Z,4.20
2022-12-12T02:57:33.282Z,3.83
2022-12-12T03:00:02.254Z,3.63
2022-12-12T03:02:49.809Z,4.17
2022-12-12T03:05:44.480Z,4.70
2022-12-12T03:08:28.001Z,5.70
2022-12-12T03:11:14.017Z,5.03
2022-12-12T03:13:45.268Z,4.50
2022-12-12T03:16:26.613Z,5.10
2022-12-12T03:19:19.444Z,5.20
2022-12-12T03:22:29.051Z,5.50
2022-12-12T03:25:12.020Z,28.27
2022-12-12T03:28:18.562Z,18.97
2022-12-12T03:30:48.441Z,14.40
2022-12-12T03:33:40.882Z,9.20
2022-12-12T03:36:17.491Z,6.70
2022-12-12T03:38:57.288Z,6.20
2022-12-12T03:41:35.105Z,6.37
2022-12-12T03:44:06.168Z,5.70
2022-12-12T03:46:44.154Z,5.70
2022-12-12T03:49:24.815Z,7.80
2022-12-12T03:51:59.245Z,7.83
2022-12-12T03:54:35.243Z,7.03
2022-12-12T03:57:15.718Z,8.77
2022-12-12T03:59:50.743Z,9.53
2022-12-12T04:02:30.573Z,10.63
2022-12-12T04:05:19.192Z,10.20
2022-12-12T04:07:53.689Z,9.90
2022-12-12T04:11:03.001Z,11.10
2022-12-12T04:13:51.427Z,10.73
2022-12-12T04:16:25.620Z,11.43
2022-12-12T04:19:44.310Z,12.07
2022-12-12T04:22:38.338Z,12.30
2022-12-12T04:25:32.022Z,11.90
2022-12-12T04:28:04.734Z,11.70
2022-12-12T04:30:35.007Z,10.60
2022-12-12T04:33:08.258Z,10.97
2022-12-12T04:35:40.371Z,11.60
2022-12-12T04:38:13.112Z,7.03
2022-12-12T04:40:44.260Z,4.20
2022-12-12T04:43:19.342Z,3.67
2022-12-12T04:45:58.308Z,3.57
2022-12-12T04:48:38.975Z,4.10
2022-12-12T04:51:09.342Z,6.40
2022-12-12T04:53:42.267Z,8.57
2022-12-12T04:56:12.694Z,10.50
2022-12-12T04:58:40.469Z,10.57
2022-12-12T05:01:14.382Z,11.57
2022-12-12T05:04:03.324Z,12.13
2022-12-12T05:06:39.781Z,11.80
2022-12-12T05:09:07.684Z,11.70
2022-12-12T05:11:35.397Z,12.27
2022-12-12T05:14:02.691Z,11.33
2022-12-12T05:16:44.808Z,11.83
2022-12-12T05:19:12.145Z,11.97
2022-12-12T05:21:39.462Z,11.83
2022-12-12T05:24:07.225Z,11.63
2022-12-12T05:26:35.526Z,12.10
2022-12-12T05:29:07.713Z,12.43
2022-12-12T05:31:35.563Z,12.77
2022-12-12T05:34:03.581Z,12.07
2022-12-12T05:36:31.059Z,11.70
2022-12-12T05:38:58.326Z,12.33
2022-12-12T05:41:25.608Z,11.23
2022-12-12T05:43:52.949Z,11.57
2022-12-12T05:46:20.232Z,11.33
2022-12-12T05:48:50.829Z,12.13
2022-12-12T05:51:18.885Z,11.83
2022-12-12T05:53:47.332Z,10.70
2022-12-12T05:56:14.783Z,11.47
2022-12-12T05:58:42.517Z,10.93
2022-12-12T06:01:10.523Z,10.77
2022-12-12T06:03:37.953Z,11.67
2022-12-12T06:06:05.428Z,12.03
2022-12-12T06:08:32.895Z,11.70
2022-12-12T06:11:00.319Z,12.13
2022-12-12T06:13:28.163Z,12.17
2022-12-12T06:15:55.569Z,11.63
2022-12-12T06:18:22.884Z,11.70
2022-12-12T06:20:50.182Z,12.50
2022-12-12T06:23:17.686Z,13.33
2022-12-12T06:25:44.962Z,13.33
2022-12-12T06:28:12.168Z,13.80
2022-12-12T06:30:39.641Z,14.70
2022-12-12T06:33:07.415Z,14.93
2022-12-12T06:35:34.643Z,16.30
2022-12-12T06:38:02.105Z,16.63
2022-12-12T06:40:29.381Z,16.23
2022-12-12T06:42:57.123Z,14.87
2022-12-12T06:45:24.378Z,17.07
2022-12-12T06:47:51.947Z,15.87
2022-12-12T06:50:23.649Z,16.40
2022-12-12T06:52:51.452Z,15.33
2022-12-12T06:55:18.698Z,16.27
2022-12-12T06:57:45.969Z,15.17
2022-12-12T07:00:14.373Z,13.80
2022-12-12T07:02:41.819Z,14.57
2022-12-12T07:05:09.274Z,14.03
2022-12-12T07:07:36.725Z,15.17
2022-12-12T07:10:04.794Z,13.00
2022-12-12T07:12:32.044Z,14.10
2022-12-12T07:14:59.379Z,13.47
2022-12-12T07:17:26.828Z,13.10
2022-12-12T07:19:54.201Z,12.43
2022-12-12T07:22:30.552Z,12.17
2022-12-12T07:24:58.171Z,12.95
2022-12-12T07:27:25.666Z,12.53
2022-12-12T07:29:52.905Z,11.70
2022-12-12T07:32:20.200Z,11.77
2022-12-12T07:34:47.472Z,11.87
2022-12-12T07:37:17.183Z,13.53
2022-12-12T07:39:44.490Z,13.03
2022-12-12T07:42:11.723Z,12.90
2022-12-12T07:44:39.718Z,12.20
2022-12-12T07:47:07.381Z,12.60
2022-12-12T07:49:34.602Z,11.90
2022-12-12T07:52:02.867Z,12.80
2022-12-12T07:54:30.312Z,11.43
2022-12-12T07:57:00.284Z,11.37
2022-12-12T07:59:27.607Z,11.17
2022-12-12T08:01:55.587Z,12.23
2022-12-12T08:04:23.029Z,12.73
2022-12-12T08:06:55.690Z,12.40
2022-12-12T08:09:27.078Z,12.87
2022-12-12T08:11:58.977Z,11.73
2022-12-12T08:14:26.615Z,11.67
2022-12-12T08:16:53.853Z,13.13
2022-12-12T08:19:21.200Z,11.33
2022-12-12T08:21:48.464Z,11.20
2022-12-12T08:24:16.640Z,11.50
2022-12-12T08:26:44.516Z,11.97
2022-12-12T08:29:13.403Z,11.87
2022-12-12T08:31:42.774Z,12.67
2022-12-12T08:34:10.087Z,13.33
2022-12-12T08:36:46.454Z,12.37
2022-12-12T08:39:16.164Z,13.95
2022-12-12T08:41:47.946Z,13.83
2022-12-12T08:44:16.842Z,13.43
2022-12-12T08:46:50.854Z,13.30
2022-12-12T08:49:18.213Z,12.52
2022-12-12T08:51:45.473Z,11.93
2022-12-12T08:54:13.401Z,12.23
2022-12-12T08:56:41.359Z,12.90
2022-12-12T08:59:09.195Z,12.75
2022-12-12T09:01:37.179Z,12.60
2022-12-12T09:04:04.655Z,13.13
2022-12-12T09:06:31.990Z,11.80
2022-12-12T09:08:59.451Z,11.88
2022-12-12T09:11:27.268Z,12.40
2022-12-12T09:13:54.612Z,12.60
2022-12-12T09:16:23.321Z,13.32
2022-12-12T09:18:50.669Z,13.63
2022-12-12T09:21:18.602Z,14.43
2022-12-12T09:23:48.102Z,13.70
2022-12-12T09:26:15.566Z,13.93
2022-12-12T09:28:42.782Z,14.55
2022-12-12T09:31:11.783Z,14.43
2022-12-12T09:33:39.950Z,15.00
2022-12-12T09:36:12.085Z,14.95
2022-12-12T09:38:39.607Z,15.37
2022-12-12T09:41:09.827Z,14.07
2022-12-12T09:43:51.542Z,14.65
2022-12-12T09:46:31.285Z,15.13
2022-12-12T09:49:12.486Z,16.00
2022-12-12T09:51:45.328Z,14.45
2022-12-12T09:54:14.963Z,14.70
2022-12-12T09:56:57.262Z,15.73
2022-12-12T09:59:30.454Z,14.38
2022-12-12T10:01:57.671Z,15.05
2022-12-12T10:04:51.170Z,15.23
2022-12-12T10:07:33.057Z,14.27
2022-12-12T10:10:33.484Z,13.98
2022-12-12T10:13:03.949Z,13.60
2022-12-12T10:15:38.743Z,14.98
2022-12-12T10:18:17.521Z,15.00
2022-12-12T10:20:51.403Z,14.85
2022-12-12T10:23:53.640Z,14.77
2022-12-12T10:26:45.501Z,14.55
2022-12-12T10:29:22.962Z,15.70
2022-12-12T10:32:15.369Z,15.07
2022-12-12T10:35:03.161Z,15.25
2022-12-12T10:37:49.625Z,14.95
2022-12-12T10:40:41.107Z,14.82
2022-12-12T10:43:22.922Z,15.35
2022-12-12T10:46:19.425Z,15.68
2022-12-12T10:48:48.456Z,15.25
2022-12-12T10:51:18.786Z,15.27
2022-12-12T10:53:47.262Z,14.30
2022-12-12T10:56:23.754Z,15.27
2022-12-12T11:02:08.477Z,13.85
2022-12-12T11:06:54.955Z,18.20
2022-12-12T11:09:28.712Z,18.00
2022-12-12T11:12:15.056Z,22.53
2022-12-12T11:14:53.585Z,16.60
2022-12-12T11:17:32.281Z,15.02
2022-12-12T11:20:07.411Z,16.63
2022-12-12T11:22:38.322Z,16.88
2022-12-12T11:25:06.333Z,17.08
2022-12-12T11:27:37.892Z,18.30
2022-12-12T11:30:08.037Z,17.40
2022-12-12T11:32:40.983Z,17.30
2022-12-12T11:35:47.079Z,16.50
2022-12-12T11:38:20.103Z,17.08
2022-12-12T11:40:59.643Z,18.48
2022-12-12T11:43:52.060Z,17.38
2022-12-12T11:46:24.710Z,18.45
2022-12-12T11:48:52.375Z,18.33
2022-12-12T11:51:40.785Z,17.73
2022-12-12T11:54:43.700Z,17.75
2022-12-12T11:57:38.843Z,16.52
2022-12-12T12:00:15.461Z,17.15
2022-12-12T12:05:41.564Z,16.13
2022-12-12T12:08:41.883Z,16.70
2022-12-12T12:11:35.855Z,15.32
2022-12-12T12:14:18.924Z,15.55
2022-12-12T12:16:52.262Z,15.50
2022-12-12T12:19:27.908Z,15.15
2022-12-12T12:22:12.422Z,16.48
2022-12-12T12:25:05.492Z,16.52
2022-12-12T12:27:38.719Z,17.85
2022-12-12T12:30:37.085Z,20.10
2022-12-12T12:33:25.892Z,19.85
2022-12-12T12:36:21.092Z,14.63
2022-12-12T12:39:24.255Z,14.82
2022-12-12T12:42:09.461Z,15.15
2022-12-12T12:44:47.616Z,16.65
2022-12-12T12:47:52.418Z,16.63
2022-12-12T12:50:32.945Z,15.93
2022-12-12T12:53:08.944Z,17.90
2022-12-12T12:55:43.621Z,21.17
2022-12-12T12:58:21.403Z,19.67
2022-12-12T13:01:08.965Z,19.65
2022-12-12T13:03:44.616Z,22.52
2022-12-12T13:06:22.898Z,24.00
2022-12-12T13:08:58.191Z,25.17
2022-12-12T13:11:38.010Z,25.38
2022-12-12T13:14:30.244Z,24.23
2022-12-12T13:17:06.247Z,22.88
2022-12-12T13:19:41.247Z,25.60
2022-12-12T13:22:16.621Z,24.15
2022-12-12T13:25:21.782Z,24.25
2022-12-12T13:27:52.735Z,22.60
2022-12-12T13:30:23.964Z,22.85
2022-12-12T13:33:11.972Z,23.20
2022-12-12T13:35:47.427Z,31.10
2022-12-12T13:38:31.800Z,38.75
2022-12-12T13:41:06.527Z,24.85
2022-12-12T13:43:33.758Z,24.58
2022-12-12T13:46:27.388Z,23.92
2022-12-12T13:48:57.394Z,22.63
2022-12-12T13:51:27.821Z,22.08
2022-12-12T13:54:12.004Z,21.50
2022-12-12T13:56:45.186Z,20.52
2022-12-12T13:59:27.210Z,21.48
2022-12-12T14:02:23.793Z,24.10
2022-12-12T14:05:31.615Z,22.30
2022-12-12T14:08:02.250Z,23.05
2022-12-12T14:10:49.888Z,26.02
2022-12-12T14:13:23.681Z,24.02
2022-12-12T14:16:03.140Z,23.57
2022-12-12T14:18:52.238Z,23.92
2022-12-12T14:21:21.621Z,25.42
2022-12-12T14:23:53.561Z,24.08
2022-12-12T14:26:27.091Z,23.55
2022-12-12T14:29:17.955Z,23.38
2022-12-12T14:32:07.278Z,23.98
2022-12-12T14:34:34.527Z,24.85
2022-12-12T14:37:39.531Z,23.77
2022-12-12T14:40:27.543Z,25.17
2022-12-12T14:43:18.669Z,26.10
2022-12-12T14:45:59.086Z,26.02
2022-12-12T14:48:30.340Z,27.98
2022-12-12T14:51:29.280Z,28.23
2022-12-12T14:54:00.272Z,27.00
2022-12-12T14:56:52.211Z,26.88
2022-12-12T14:59:33.251Z,26.92
2022-12-12T15:02:11.557Z,27.05
2022-12-12T15:04:39.943Z,27.67
2022-12-12T15:07:42.042Z,27.30
2022-12-12T15:10:33.074Z,28.85
2022-12-12T15:13:01.673Z,29.43
2022-12-12T15:15:33.603Z,30.85
2022-12-12T15:18:03.550Z,32.33
2022-12-12T15:20:32.608Z,33.17
2022-12-12T15:23:05.967Z,33.08
2022-12-12T15:25:54.879Z,32.00
2022-12-12T15:28:24.850Z,30.10
2022-12-12T15:30:53.673Z,32.05
2022-12-12T15:33:26.308Z,31.52
2022-12-12T15:36:25.070Z,29.33
2022-12-12T15:39:13.388Z,30.63
2022-12-12T15:41:41.345Z,30.90
2022-12-12T15:44:21.376Z,31.58
2022-12-12T15:46:50.573Z,30.17
2022-12-12T15:49:40.210Z,29.90
2022-12-12T15:52:28.923Z,27.40
2022-12-12T15:55:04.044Z,26.00
2022-12-12T15:57:50.943Z,25.75
2022-12-12T16:03:18.799Z,26.17
2022-12-12T16:05:58.509Z,27.77
2022-12-12T16:08:36.136Z,28.17
2022-12-12T16:11:37.436Z,26.43
2022-12-12T16:14:22.515Z,27.83
2022-12-12T16:16:57.546Z,27.20
2022-12-12T16:19:36.142Z,29.67
2022-12-12T16:22:06.669Z,27.57
2022-12-12T16:24:56.116Z,29.37
2022-12-12T16:27:25.221Z,28.27
2022-12-12T16:29:52.450Z,27.50
2022-12-12T16:32:20.592Z,27.57
2022-12-12T16:34:48.091Z,26.40
2022-12-12T16:37:18.123Z,26.13
2022-12-12T16:39:45.954Z,25.13
2022-12-12T16:42:19.249Z,25.35
2022-12-12T16:44:47.847Z,27.33
2022-12-12T16:47:23.461Z,26.58
2022-12-12T16:49:51.608Z,27.73
2022-12-12T16:52:20.480Z,27.17
2022-12-12T16:54:53.686Z,26.67
2022-12-12T16:57:22.102Z,26.87
2022-12-12T16:59:49.506Z,27.57
2022-12-12T17:02:25.544Z,27.83
2022-12-12T17:04:55.054Z,28.95
2022-12-12T17:07:38.044Z,29.80
2022-12-12T17:10:05.978Z,28.77
2022-12-12T17:12:33.250Z,27.95
2022-12-12T17:15:11.405Z,28.83
2022-12-12T17:17:44.345Z,29.83
2022-12-12T17:20:15.462Z,29.43
2022-12-12T17:22:45.537Z,28.73
2022-12-12T17:25:18.016Z,27.98
2022-12-12T17:27:46.398Z,28.50
2022-12-12T17:30:18.358Z,28.70
2022-12-12T17:35:34.880Z,27.30
2022-12-12T17:38:03.663Z,28.00
2022-12-12T17:40:44.799Z,29.05
2022-12-12T17:44:06.431Z,29.77
2022-12-12T17:46:33.824Z,29.02
2022-12-12T17:50:17.445Z,29.77
2022-12-12T17:52:48.180Z,30.20
2022-12-12T17:55:53.077Z,29.60
2022-12-12T17:58:05.939Z,28.65
2022-12-12T18:00:38.520Z,31.23
2022-12-12T18:03:06.481Z,31.02
2022-12-12T18:05:36.160Z,30.55
2022-12-12T18:08:06.534Z,30.75
2022-12-12T18:10:36.578Z,36.93
2022-12-12T18:13:08.257Z,34.25
2022-12-12T18:15:35.737Z,30.75
2022-12-12T18:18:05.464Z,31.15
2022-12-12T18:20:33.674Z,32.53
2022-12-12T18:23:01.191Z,31.17
2022-12-12T18:25:28.484Z,31.77
2022-12-12T18:27:55.942Z,31.45
2022-12-12T18:30:23.176Z,31.77
2022-12-12T18:32:56.086Z,34.40
2022-12-12T18:35:27.241Z,32.17
2022-12-12T18:37:54.644Z,31.87
2022-12-12T18:40:29.588Z,30.70
2022-12-12T18:42:57.411Z,30.90
2022-12-12T18:45:24.767Z,30.27
2022-12-12T18:47:52.034Z,28.80
2022-12-12T18:50:19.268Z,29.80
2022-12-12T18:52:47.469Z,28.70
2022-12-12T18:55:27.174Z,31.57
2022-12-12T18:57:54.481Z,29.95
2022-12-12T19:00:21.779Z,29.17
2022-12-12T19:02:49.080Z,28.00
2022-12-12T19:05:16.513Z,28.13
2022-12-12T19:07:47.062Z,27.70
2022-12-12T19:10:14.874Z,27.63
2022-12-12T19:12:42.362Z,27.83
2022-12-12T19:15:18.323Z,26.80
2022-12-12T19:17:45.809Z,28.27
2022-12-12T19:20:13.384Z,28.90
2022-12-12T19:22:45.491Z,28.73
2022-12-12T19:25:15.132Z,28.70
2022-12-12T19:27:42.551Z,27.77
2022-12-12T19:30:18.607Z,26.03
2022-12-12T19:32:49.124Z,27.27
2022-12-12T19:35:16.828Z,27.40
2022-12-12T19:37:44.196Z,25.07
2022-12-12T19:40:12.236Z,25.87
2022-12-12T19:42:40.302Z,25.67
2022-12-12T19:45:08.874Z,25.60
2022-12-12T19:47:36.236Z,25.93
2022-12-12T19:50:03.856Z,27.77
2022-12-12T19:52:35.205Z,26.93
2022-12-12T19:55:02.531Z,26.97
2022-12-12T19:57:30.460Z,26.60
2022-12-12T19:59:57.750Z,26.30
2022-12-12T20:02:28.145Z,26.85
2022-12-12T20:04:55.437Z,29.88
2022-12-12T20:07:22.820Z,30.47
2022-12-12T20:09:59.420Z,30.80
2022-12-12T20:14:53.786Z,28.77
2022-12-12T20:17:21.053Z,30.27
2022-12-12T20:19:49.400Z,30.37
2022-12-12T20:22:16.716Z,30.63
2022-12-12T20:24:45.033Z,29.67
2022-12-12T20:27:12.321Z,29.30
2022-12-12T20:29:42.518Z,27.97
2022-12-12T20:32:11.126Z,28.60
2022-12-12T20:34:58.989Z,26.17
2022-12-12T20:37:26.537Z,26.33
2022-12-12T20:39:53.838Z,25.83
2022-12-12T20:42:23.376Z,27.03
2022-12-12T20:44:50.738Z,25.73
2022-12-12T20:47:18.032Z,25.13
2022-12-12T20:49:45.357Z,26.07
2022-12-12T20:52:20.718Z,26.58
2022-12-12T20:54:48.181Z,26.17
2022-12-12T20:57:15.411Z,25.93
2022-12-12T20:59:42.878Z,27.13
2022-12-12T21:02:11.373Z,25.57
2022-12-12T21:04:38.595Z,25.07
2022-12-12T21:07:09.691Z,26.87
2022-12-12T21:09:37.167Z,25.00
2022-12-12T21:12:04.608Z,26.50
2022-12-12T21:14:39.230Z,25.50
2022-12-12T21:17:06.464Z,30.30
2022-12-12T21:19:33.704Z,36.97
2022-12-12T21:22:01.331Z,34.87
2022-12-12T21:24:28.602Z,52.43
2022-12-12T21:26:56.783Z,46.73
2022-12-12T21:29:25.218Z,34.20
2022-12-12T21:31:52.876Z,23.40
2022-12-12T21:34:22.370Z,24.27
2022-12-12T21:36:51.710Z,22.00
2022-12-12T21:39:19.701Z,23.63
2022-12-12T21:41:47.367Z,41.90
2022-12-12T21:44:14.742Z,24.53
2022-12-12T21:46:43.204Z,28.10
2022-12-12T21:49:20.199Z,25.83
2022-12-12T21:51:48.159Z,21.27
2022-12-12T21:54:15.753Z,21.73
2022-12-12T21:56:43.860Z,21.13
2022-12-12T21:59:14.851Z,23.07
2022-12-12T22:01:43.186Z,21.40
2022-12-12T22:04:12.690Z,22.23
2022-12-12T22:06:40.319Z,22.73
2022-12-12T22:09:10.190Z,26.80
2022-12-12T22:11:40.907Z,25.60
2022-12-12T22:14:17.243Z,24.40
2022-12-12T22:16:44.838Z,25.53
2022-12-12T22:19:14.832Z,24.37
2022-12-12T22:21:46.653Z,22.93
2022-12-12T22:24:15.557Z,21.83
2022-12-12T22:26:45.485Z,23.67
2022-12-12T22:29:16.142Z,23.60
2022-12-12T22:31:46.687Z,22.53
2022-12-12T22:34:25.733Z,21.37
2022-12-12T22:36:55.767Z,23.57
2022-12-12T22:39:27.200Z,23.50
2022-12-12T22:41:55.886Z,22.90
2022-12-12T22:44:25.545Z,22.43
2022-12-12T22:46:54.756Z,22.40
2022-12-12T22:49:47.863Z,21.13
2022-12-12T22:52:16.756Z,21.23
2022-12-12T22:54:44.022Z,23.90
2022-12-12T22:57:11.324Z,22.77
2022-12-12T22:59:38.785Z,22.70
2022-12-12T23:02:06.055Z,22.13
2022-12-12T23:04:35.741Z,21.67
2022-12-12T23:07:04.304Z,22.70
2022-12-12T23:09:32.844Z,22.17
2022-12-12T23:12:00.240Z,22.17
2022-12-12T23:14:28.051Z,20.27
2022-12-12T23:16:55.455Z,19.60
2022-12-12T23:19:25.939Z,20.33
2022-12-12T23:22:28.778Z,20.47
2022-12-12T23:24:56.202Z,21.07
2022-12-12T23:27:29.782Z,20.37
2022-12-12T23:29:57.104Z,19.77
2022-12-12T23:32:24.454Z,19.03
2022-12-12T23:35:16.849Z,20.60
2022-12-12T23:38:23.208Z,19.10
2022-12-12T23:41:12.128Z,19.37
2022-12-12T23:43:41.068Z,18.13
2022-12-12T23:46:28.421Z,19.27
2022-12-12T23:49:08.199Z,19.10
2022-12-12T23:51:39.817Z,19.70
2022-12-12T23:54:10.891Z,20.60
2022-12-12T23:56:39.590Z,19.70
2022-12-12T23:59:11.651Z,19.40
